createdAt,value
2023-04-19T00:00:17.374Z,4.22
2023-04-19T00:01:20.577Z,3.97
2023-04-19T00:02:26.085Z,4.47
2023-04-19T00:03:30.941Z,3.78
2023-04-19T00:04:34.246Z,3.65
2023-04-19T00:05:38.707Z,6.68
2023-04-19T00:06:42.486Z,3.20
2023-04-19T00:07:45.516Z,3.50
2023-04-19T00:08:48.436Z,7.20
2023-04-19T00:09:51.577Z,4.35
2023-04-19T00:10:54.540Z,2.92
2023-04-19T00:12:04.901Z,4.10
2023-04-19T00:13:07.986Z,3.90
2023-04-19T00:14:11.118Z,3.42
2023-04-19T00:15:14.034Z,4.62
2023-04-19T00:16:17.415Z,3.67
2023-04-19T00:17:21.556Z,4.45
2023-04-19T00:18:24.809Z,4.95
2023-04-19T00:19:28.025Z,4.37
2023-04-19T00:20:31.007Z,3.92
2023-04-19T00:21:34.082Z,3.83
2023-04-19T00:22:37.024Z,4.85
2023-04-19T00:23:39.944Z,5.30
2023-04-19T00:24:42.997Z,4.03
2023-04-19T00:25:49.878Z,3.62
2023-04-19T00:26:53.165Z,4.18
2023-04-19T00:27:56.159Z,4.53
2023-04-19T00:28:59.065Z,6.80
2023-04-19T00:30:02.424Z,5.68
2023-04-19T00:31:05.873Z,6.68
2023-04-19T00:32:09.052Z,2.60
2023-04-19T00:33:13.337Z,3.15
2023-04-19T00:34:16.528Z,3.35
2023-04-19T00:35:19.773Z,3.62
2023-04-19T00:36:22.823Z,3.97
2023-04-19T00:37:25.970Z,4.45
2023-04-19T00:38:28.887Z,7.00
2023-04-19T00:39:31.978Z,5.22
2023-04-19T00:40:35.142Z,5.00
2023-04-19T00:41:38.027Z,4.35
2023-04-19T00:42:41.029Z,3.85
2023-04-19T00:43:43.907Z,3.87
2023-04-19T00:44:46.683Z,3.72
2023-04-19T00:45:50.180Z,4.50
2023-04-19T00:46:54.070Z,4.03
2023-04-19T00:47:57.359Z,3.50
2023-04-19T00:49:00.661Z,4.53
2023-04-19T00:50:05.082Z,4.57
2023-04-19T00:51:10.767Z,3.67
2023-04-19T00:52:14.447Z,3.60
2023-04-19T00:53:17.372Z,3.25
2023-04-19T00:54:21.172Z,2.83
2023-04-19T00:55:24.747Z,3.90
2023-04-19T00:56:28.011Z,5.97
2023-04-19T00:57:31.133Z,3.80
2023-04-19T00:58:34.117Z,3.60
2023-04-19T00:59:37.261Z,3.58
2023-04-19T01:00:40.438Z,5.07
2023-04-19T01:01:43.389Z,4.78
2023-04-19T01:02:48.197Z,3.25
2023-04-19T01:03:51.643Z,3.78
2023-04-19T01:04:54.755Z,4.47
2023-04-19T01:05:57.803Z,6.18
2023-04-19T01:07:01.746Z,4.93
2023-04-19T01:08:05.097Z,4.47
2023-04-19T01:09:07.926Z,3.92
2023-04-19T01:10:11.090Z,3.28
2023-04-19T01:11:13.922Z,4.87
2023-04-19T01:12:17.256Z,4.10
2023-04-19T01:13:20.099Z,3.37
2023-04-19T01:14:22.957Z,5.95
2023-04-19T01:15:26.498Z,3.92
2023-04-19T01:16:30.050Z,3.92
2023-04-19T01:17:33.591Z,3.62
2023-04-19T01:18:38.196Z,4.55
2023-04-19T01:19:41.298Z,3.50
2023-04-19T01:20:44.461Z,4.43
2023-04-19T01:21:47.395Z,4.75
2023-04-19T01:22:50.559Z,3.22
2023-04-19T01:23:53.483Z,4.45
2023-04-19T01:24:57.554Z,3.85
2023-04-19T01:26:02.424Z,3.45
2023-04-19T01:27:05.354Z,3.05
2023-04-19T01:28:08.389Z,7.15
2023-04-19T01:29:11.289Z,6.45
2023-04-19T01:30:14.785Z,4.40
2023-04-19T01:31:17.760Z,3.87
2023-04-19T01:32:20.778Z,4.10
2023-04-19T01:33:24.371Z,5.93
2023-04-19T01:34:27.674Z,3.97
2023-04-19T01:35:30.665Z,3.37
2023-04-19T01:36:33.574Z,4.00
2023-04-19T01:37:36.577Z,7.72
2023-04-19T01:38:39.484Z,2.95
2023-04-19T01:39:42.836Z,3.25
2023-04-19T01:40:45.897Z,3.20
2023-04-19T01:41:48.817Z,5.22
2023-04-19T01:42:52.535Z,4.43
2023-04-19T01:43:55.402Z,5.45
2023-04-19T01:44:58.278Z,4.47
2023-04-19T01:46:01.382Z,3.08
2023-04-19T01:47:06.064Z,4.93
2023-04-19T01:48:09.352Z,3.87
2023-04-19T01:49:12.254Z,3.58
2023-04-19T01:50:15.290Z,3.70
2023-04-19T01:51:18.398Z,3.12
2023-04-19T01:52:21.422Z,3.83
2023-04-19T01:53:24.333Z,5.15
2023-04-19T01:54:27.313Z,3.33
2023-04-19T01:55:30.217Z,6.03
2023-04-19T01:56:33.376Z,4.47
2023-04-19T01:57:36.369Z,4.28
2023-04-19T01:58:39.185Z,3.78
2023-04-19T01:59:42.081Z,5.43
2023-04-19T02:00:44.936Z,4.93
2023-04-19T02:01:48.079Z,4.35
2023-04-19T02:02:51.315Z,7.85
2023-04-19T02:03:54.471Z,6.40
2023-04-19T02:04:58.143Z,5.53
2023-04-19T02:06:01.020Z,3.87
2023-04-19T02:07:04.013Z,3.50
2023-04-19T02:08:07.582Z,4.22
2023-04-19T02:09:10.498Z,6.87
2023-04-19T02:10:14.137Z,4.45
2023-04-19T02:11:17.383Z,2.87
2023-04-19T02:12:20.471Z,3.58
2023-04-19T02:13:23.319Z,4.15
2023-04-19T02:14:26.602Z,2.78
2023-04-19T02:15:29.458Z,3.55
2023-04-19T02:16:34.511Z,3.72
2023-04-19T02:17:39.225Z,5.62
2023-04-19T02:18:42.148Z,3.47
2023-04-19T02:19:45.190Z,4.22
2023-04-19T02:20:48.521Z,4.80
2023-04-19T02:21:52.094Z,4.25
2023-04-19T02:22:55.016Z,3.95
2023-04-19T02:23:58.402Z,3.72
2023-04-19T02:25:01.382Z,3.42
2023-04-19T02:26:04.520Z,6.05
2023-04-19T02:27:07.577Z,3.10
2023-04-19T02:28:10.954Z,4.55
2023-04-19T02:29:14.157Z,4.30
2023-04-19T02:30:17.034Z,4.85
2023-04-19T02:31:20.077Z,5.85
2023-04-19T02:32:23.018Z,4.45
2023-04-19T02:33:29.965Z,4.53
2023-04-19T02:34:35.986Z,4.55
2023-04-19T02:35:39.124Z,5.65
2023-04-19T02:36:42.081Z,4.57
2023-04-19T02:37:45.617Z,7.80
2023-04-19T02:38:48.601Z,5.05
2023-04-19T02:39:51.632Z,4.47
2023-04-19T02:40:55.137Z,8.27
2023-04-19T02:41:58.307Z,5.80
2023-04-19T02:43:01.159Z,8.25
2023-04-19T02:44:04.294Z,9.18
2023-04-19T02:45:08.334Z,4.30
2023-04-19T02:46:11.367Z,5.80
2023-04-19T02:47:14.372Z,6.25
2023-04-19T02:48:17.262Z,8.23
2023-04-19T02:49:21.557Z,5.25
2023-04-19T02:50:24.532Z,6.95
2023-04-19T02:51:27.532Z,3.12
2023-04-19T02:52:30.507Z,4.35
2023-04-19T02:53:33.996Z,6.00
2023-04-19T02:54:36.843Z,4.00
2023-04-19T02:55:39.655Z,4.95
2023-04-19T02:56:42.609Z,5.10
2023-04-19T02:57:45.463Z,3.67
2023-04-19T02:58:48.617Z,6.18
2023-04-19T02:59:51.559Z,4.43
2023-04-19T03:00:54.504Z,4.70
2023-04-19T03:01:57.534Z,5.70
2023-04-19T03:03:01.177Z,4.12
2023-04-19T03:04:04.378Z,3.92
2023-04-19T03:05:07.611Z,3.00
2023-04-19T03:06:10.824Z,6.75
2023-04-19T03:07:14.115Z,5.60
2023-04-19T03:08:17.062Z,8.57
2023-04-19T03:09:20.593Z,7.62
2023-04-19T03:10:23.706Z,4.30
2023-04-19T03:11:26.694Z,5.55
2023-04-19T03:12:29.574Z,5.00
2023-04-19T03:13:32.460Z,3.65
2023-04-19T03:14:35.525Z,3.87
2023-04-19T03:15:38.481Z,5.20
2023-04-19T03:16:41.887Z,5.82
2023-04-19T03:17:45.286Z,9.50
2023-04-19T03:18:49.493Z,4.32
2023-04-19T03:19:52.905Z,4.90
2023-04-19T03:20:55.932Z,3.08
2023-04-19T03:21:59.715Z,3.20
2023-04-19T03:23:02.690Z,3.67
2023-04-19T03:24:05.750Z,7.85
2023-04-19T03:25:09.408Z,4.53
2023-04-19T03:26:12.333Z,4.03
2023-04-19T03:27:15.322Z,5.95
2023-04-19T03:28:18.226Z,3.90
2023-04-19T03:29:21.194Z,7.90
2023-04-19T03:30:24.214Z,23.67
2023-04-19T03:31:27.101Z,5.03
2023-04-19T03:32:32.305Z,6.28
2023-04-19T03:33:35.300Z,3.78
2023-04-19T03:34:38.209Z,6.28
2023-04-19T03:35:41.207Z,6.93
2023-04-19T03:36:44.089Z,6.78
2023-04-19T03:37:47.542Z,4.68
2023-04-19T03:38:50.447Z,5.43
2023-04-19T03:39:53.406Z,4.15
2023-04-19T03:40:57.568Z,4.07
2023-04-19T03:42:01.606Z,6.90
2023-04-19T03:43:04.527Z,4.07
2023-04-19T03:44:07.504Z,4.75
2023-04-19T03:45:10.927Z,5.28
2023-04-19T03:46:13.911Z,4.30
2023-04-19T03:47:16.843Z,4.85
2023-04-19T03:48:19.796Z,6.50
2023-04-19T03:49:22.712Z,5.10
2023-04-19T03:50:25.769Z,5.82
2023-04-19T03:51:29.059Z,6.75
2023-04-19T03:52:32.578Z,4.00
2023-04-19T03:53:36.532Z,6.40
2023-04-19T03:54:39.430Z,5.18
2023-04-19T03:55:42.198Z,5.62
2023-04-19T03:56:45.449Z,4.20
2023-04-19T03:57:48.808Z,6.15
2023-04-19T03:58:52.197Z,4.57
2023-04-19T03:59:55.325Z,4.45
2023-04-19T04:00:59.536Z,6.12
2023-04-19T04:02:02.714Z,4.93
2023-04-19T04:03:05.960Z,4.47
2023-04-19T04:04:09.557Z,5.43
2023-04-19T04:05:12.759Z,3.97
2023-04-19T04:06:15.837Z,2.83
2023-04-19T04:07:18.711Z,6.35
2023-04-19T04:08:21.994Z,5.82
2023-04-19T04:09:25.084Z,8.55
2023-04-19T04:10:28.345Z,5.95
2023-04-19T04:11:31.420Z,4.22
2023-04-19T04:12:34.575Z,5.47
2023-04-19T04:13:37.766Z,4.97
2023-04-19T04:14:40.717Z,4.55
2023-04-19T04:15:43.541Z,5.55
2023-04-19T04:16:46.677Z,6.60
2023-04-19T04:17:49.603Z,5.28
2023-04-19T04:18:52.806Z,5.43
2023-04-19T04:19:56.050Z,6.78
2023-04-19T04:20:58.961Z,5.60
2023-04-19T04:22:02.352Z,6.18
2023-04-19T04:23:05.496Z,5.95
2023-04-19T04:24:08.525Z,5.82
2023-04-19T04:25:11.496Z,7.25
2023-04-19T04:26:14.524Z,5.12
2023-04-19T04:27:21.426Z,5.55
2023-04-19T04:28:24.379Z,6.47
2023-04-19T04:29:27.482Z,6.65
2023-04-19T04:30:30.751Z,9.10
2023-04-19T04:31:36.262Z,7.47
2023-04-19T04:32:41.370Z,3.67
2023-04-19T04:33:46.081Z,3.92
2023-04-19T04:34:49.265Z,4.70
2023-04-19T04:35:52.305Z,8.02
2023-04-19T04:36:55.240Z,8.10
2023-04-19T04:37:59.885Z,4.45
2023-04-19T04:39:03.272Z,7.22
2023-04-19T04:40:08.351Z,4.45
2023-04-19T04:41:12.748Z,4.37
2023-04-19T04:42:15.667Z,4.05
2023-04-19T04:43:18.633Z,4.35
2023-04-19T04:44:22.960Z,6.40
2023-04-19T04:45:26.014Z,4.28
2023-04-19T04:46:28.895Z,4.70
2023-04-19T04:47:33.328Z,5.62
2023-04-19T04:48:36.187Z,5.05
2023-04-19T04:49:39.028Z,4.97
2023-04-19T04:50:42.287Z,4.68
2023-04-19T04:51:45.458Z,5.15
2023-04-19T04:52:48.268Z,4.95
2023-04-19T04:53:51.189Z,4.65
2023-04-19T04:54:54.014Z,5.40
2023-04-19T04:55:56.899Z,5.05
2023-04-19T04:56:59.746Z,4.55
2023-04-19T04:58:02.716Z,4.45
2023-04-19T04:59:05.908Z,5.50
2023-04-19T05:00:10.170Z,4.50
2023-04-19T05:01:13.082Z,4.70
2023-04-19T05:02:16.112Z,4.57
2023-04-19T05:03:20.318Z,4.85
2023-04-19T05:04:23.419Z,8.40
2023-04-19T05:05:26.708Z,4.55
2023-04-19T05:06:29.573Z,5.93
2023-04-19T05:07:32.490Z,4.62
2023-04-19T05:08:35.284Z,10.80
2023-04-19T05:09:38.034Z,7.45
2023-04-19T05:10:40.929Z,4.80
2023-04-19T05:11:43.811Z,6.78
2023-04-19T05:12:46.741Z,5.57
2023-04-19T05:13:49.517Z,4.80
2023-04-19T05:14:53.573Z,4.93
2023-04-19T05:15:56.620Z,6.00
2023-04-19T05:16:59.423Z,5.72
2023-04-19T05:18:03.052Z,5.32
2023-04-19T05:19:06.178Z,8.85
2023-04-19T05:20:09.473Z,4.55
2023-04-19T05:21:12.591Z,4.10
2023-04-19T05:22:16.017Z,4.65
2023-04-19T05:23:18.961Z,3.78
2023-04-19T05:24:21.772Z,6.57
2023-04-19T05:25:24.767Z,6.45
2023-04-19T05:26:27.770Z,5.47
2023-04-19T05:27:30.690Z,5.95
2023-04-19T05:28:33.710Z,8.10
2023-04-19T05:29:37.002Z,3.80
2023-04-19T05:30:40.060Z,4.32
2023-04-19T05:31:43.056Z,5.82
2023-04-19T05:32:46.500Z,6.15
2023-04-19T05:33:49.322Z,8.10
2023-04-19T05:34:52.144Z,5.80
2023-04-19T05:35:54.868Z,3.67
2023-04-19T05:36:57.981Z,6.03
2023-04-19T05:38:01.064Z,6.18
2023-04-19T05:39:04.002Z,6.68
2023-04-19T05:40:11.935Z,5.18
2023-04-19T05:41:16.167Z,2.65
2023-04-19T05:42:19.174Z,6.18
2023-04-19T05:43:22.283Z,10.15
2023-04-19T05:44:25.217Z,5.12
2023-04-19T05:45:28.197Z,5.12
2023-04-19T05:46:31.682Z,4.87
2023-04-19T05:47:35.016Z,4.40
2023-04-19T05:48:37.955Z,4.05
2023-04-19T05:49:42.026Z,5.72
2023-04-19T05:50:46.267Z,4.68
2023-04-19T05:51:49.298Z,4.45
2023-04-19T05:52:52.190Z,8.05
2023-04-19T05:53:56.711Z,4.95
2023-04-19T05:55:00.627Z,5.22
2023-04-19T05:56:03.563Z,4.07
2023-04-19T05:57:07.208Z,4.90
2023-04-19T05:58:10.293Z,8.32
2023-04-19T05:59:14.237Z,3.95
2023-04-19T06:00:17.508Z,5.37
2023-04-19T06:01:20.491Z,5.60
2023-04-19T06:02:23.460Z,7.35
2023-04-19T06:03:28.743Z,6.68
2023-04-19T06:04:34.354Z,5.20
2023-04-19T06:05:37.485Z,4.32
2023-04-19T06:06:40.302Z,5.05
2023-04-19T06:07:50.655Z,4.20
2023-04-19T06:08:57.617Z,5.43
2023-04-19T06:10:00.742Z,7.45
2023-04-19T06:11:11.886Z,6.50
2023-04-19T06:12:26.328Z,4.60
2023-04-19T06:13:29.371Z,5.65
2023-04-19T06:14:32.210Z,5.70
2023-04-19T06:15:35.334Z,6.70
2023-04-19T06:16:38.423Z,4.00
2023-04-19T06:17:42.414Z,6.57
2023-04-19T06:18:45.591Z,5.87
2023-04-19T06:19:48.656Z,3.80
2023-04-19T06:20:53.424Z,4.87
2023-04-19T06:21:56.709Z,7.10
2023-04-19T06:22:59.634Z,13.68
2023-04-19T06:24:02.989Z,5.25
2023-04-19T06:25:06.097Z,7.28
2023-04-19T06:26:08.980Z,6.82
2023-04-19T06:27:12.238Z,4.70
2023-04-19T06:28:15.652Z,6.22
2023-04-19T06:29:21.946Z,4.00
2023-04-19T06:30:24.942Z,7.40
2023-04-19T06:31:28.010Z,9.55
2023-04-19T06:32:31.019Z,5.60
2023-04-19T06:33:33.956Z,3.95
2023-04-19T06:34:36.919Z,6.05
2023-04-19T06:35:39.876Z,4.87
2023-04-19T06:36:42.976Z,5.80
2023-04-19T06:37:46.282Z,3.70
2023-04-19T06:38:50.493Z,4.20
2023-04-19T06:39:53.324Z,3.42
2023-04-19T06:40:56.179Z,4.20
2023-04-19T06:41:59.141Z,3.85
2023-04-19T06:43:02.185Z,4.00
2023-04-19T06:44:08.773Z,4.40
2023-04-19T06:45:12.283Z,6.03
2023-04-19T06:46:16.091Z,3.53
2023-04-19T06:47:19.622Z,5.53
2023-04-19T06:48:22.649Z,5.57
2023-04-19T06:49:25.682Z,4.85
2023-04-19T06:50:29.116Z,3.70
2023-04-19T06:51:33.468Z,2.90
2023-04-19T06:52:36.498Z,3.67
2023-04-19T06:53:39.396Z,3.03
2023-04-19T06:54:42.446Z,5.35
2023-04-19T06:55:45.691Z,5.05
2023-04-19T06:56:50.639Z,4.65
2023-04-19T06:57:53.583Z,5.85
2023-04-19T06:58:56.429Z,3.55
2023-04-19T06:59:59.644Z,3.05
2023-04-19T07:01:05.762Z,4.03
2023-04-19T07:02:08.898Z,5.82
2023-04-19T07:03:11.835Z,4.07
2023-04-19T07:04:15.637Z,3.40
2023-04-19T07:05:19.074Z,3.87
2023-04-19T07:06:21.982Z,5.00
2023-04-19T07:07:25.086Z,4.75
2023-04-19T07:08:42.424Z,3.25
2023-04-19T07:09:51.837Z,4.07
2023-04-19T07:10:56.880Z,4.97
2023-04-19T07:12:00.191Z,7.05
2023-04-19T07:13:03.757Z,2.75
2023-04-19T07:14:06.860Z,2.28
2023-04-19T07:15:10.370Z,3.78
2023-04-19T07:16:15.019Z,4.25
2023-04-19T07:17:18.986Z,4.85
2023-04-19T07:18:22.143Z,6.90
2023-04-19T07:19:25.694Z,2.80
2023-04-19T07:20:28.744Z,2.42
2023-04-19T07:21:33.605Z,3.00
2023-04-19T07:22:36.532Z,2.47
2023-04-19T07:23:39.657Z,3.00
2023-04-19T07:24:44.791Z,4.10
2023-04-19T07:25:47.602Z,1.73
2023-04-19T07:26:50.640Z,3.85
2023-04-19T07:27:55.112Z,2.72
2023-04-19T07:28:58.497Z,2.87
2023-04-19T07:30:01.382Z,3.00
2023-04-19T07:31:04.593Z,5.10
2023-04-19T07:32:07.782Z,5.85
2023-04-19T07:33:11.286Z,6.37
2023-04-19T07:34:14.353Z,6.00
2023-04-19T07:35:17.696Z,7.70
2023-04-19T07:36:21.617Z,4.65
2023-04-19T07:37:24.761Z,3.62
2023-04-19T07:38:27.751Z,3.00
2023-04-19T07:39:31.399Z,4.00
2023-04-19T07:40:34.275Z,5.93
2023-04-19T07:41:37.520Z,4.53
2023-04-19T07:42:40.509Z,5.43
2023-04-19T07:43:43.863Z,4.10
2023-04-19T07:44:46.681Z,6.45
2023-04-19T07:45:49.556Z,4.57
2023-04-19T07:46:53.182Z,10.70
2023-04-19T07:47:56.098Z,4.45
2023-04-19T07:48:58.938Z,4.30
2023-04-19T07:50:01.975Z,5.20
2023-04-19T07:51:10.394Z,4.20
2023-04-19T07:52:13.392Z,3.62
2023-04-19T07:53:16.948Z,3.62
2023-04-19T07:54:22.660Z,4.10
2023-04-19T07:55:25.776Z,5.37
2023-04-19T07:56:28.689Z,3.17
2023-04-19T07:57:32.023Z,3.40
2023-04-19T07:58:36.397Z,4.70
2023-04-19T07:59:39.540Z,5.32
2023-04-19T08:00:42.386Z,3.87
2023-04-19T08:01:45.744Z,4.70
2023-04-19T08:02:49.400Z,4.28
2023-04-19T08:03:53.380Z,2.87
2023-04-19T08:04:58.227Z,4.45
2023-04-19T08:06:09.492Z,6.40
2023-04-19T08:07:12.553Z,5.20
2023-04-19T08:08:15.538Z,6.32
2023-04-19T08:09:18.510Z,6.05
2023-04-19T08:10:22.459Z,5.05
2023-04-19T08:11:25.695Z,4.07
2023-04-19T08:12:35.103Z,3.40
2023-04-19T08:13:42.173Z,3.17
2023-04-19T08:15:00.634Z,3.28
2023-04-19T08:17:25.356Z,2.85
2023-04-19T08:18:31.760Z,3.75
2023-04-19T08:19:34.751Z,5.20
2023-04-19T08:20:37.914Z,2.92
2023-04-19T08:21:41.760Z,4.47
2023-04-19T08:22:44.881Z,4.15
2023-04-19T08:23:48.672Z,2.92
2023-04-19T08:24:52.245Z,7.20
2023-04-19T08:25:55.161Z,3.40
2023-04-19T08:27:00.036Z,2.90
2023-04-19T08:28:03.105Z,3.85
2023-04-19T08:29:06.025Z,5.82
2023-04-19T08:30:09.635Z,3.50
2023-04-19T08:31:12.924Z,3.33
2023-04-19T08:32:16.115Z,6.10
2023-04-19T08:33:19.119Z,6.95
2023-04-19T08:34:21.957Z,4.78
2023-04-19T08:35:25.553Z,4.22
2023-04-19T08:36:39.136Z,5.60
2023-04-19T08:37:48.326Z,5.62
2023-04-19T08:39:02.149Z,4.15
2023-04-19T08:40:09.417Z,6.03
2023-04-19T08:41:14.052Z,4.85
2023-04-19T08:42:28.859Z,4.12
2023-04-19T08:43:41.708Z,5.37
2023-04-19T08:45:05.661Z,6.18
2023-04-19T08:46:09.915Z,6.87
2023-04-19T08:47:23.469Z,4.00
2023-04-19T08:48:34.104Z,6.20
2023-04-19T08:49:41.938Z,9.77
2023-04-19T08:51:04.446Z,8.00
2023-04-19T08:52:10.803Z,5.22
2023-04-19T08:54:22.109Z,6.87
2023-04-19T08:55:25.581Z,4.68
2023-04-19T08:56:35.202Z,8.00
2023-04-19T08:57:38.942Z,5.90
2023-04-19T08:59:00.311Z,9.05
2023-04-19T09:00:08.933Z,7.82
2023-04-19T09:01:22.582Z,7.32
2023-04-19T09:02:54.794Z,7.28
2023-04-19T09:04:09.590Z,8.68
2023-04-19T09:05:21.629Z,6.00
2023-04-19T09:06:25.343Z,6.93
2023-04-19T09:07:29.268Z,7.40
2023-04-19T09:08:32.802Z,7.30
2023-04-19T09:09:43.029Z,8.48
2023-04-19T09:11:00.193Z,7.18
2023-04-19T09:12:03.685Z,7.70
2023-04-19T09:13:06.859Z,9.48
2023-04-19T09:14:14.510Z,6.75
2023-04-19T09:15:35.229Z,6.62
2023-04-19T09:16:39.637Z,5.85
2023-04-19T09:17:42.835Z,7.30
2023-04-19T09:19:08.225Z,7.20
2023-04-19T09:20:36.773Z,8.60
2023-04-19T09:21:40.964Z,8.45
2023-04-19T09:23:02.953Z,7.07
2023-04-19T09:24:07.179Z,6.70
2023-04-19T09:26:23.517Z,6.32
2023-04-19T09:27:33.959Z,8.85
2023-04-19T09:28:37.045Z,10.65
2023-04-19T09:29:40.269Z,7.40
2023-04-19T09:30:58.313Z,6.30
2023-04-19T09:32:06.609Z,7.37
2023-04-19T09:33:09.873Z,9.45
2023-04-19T09:34:14.978Z,6.97
2023-04-19T09:35:18.051Z,9.65
2023-04-19T09:36:32.458Z,9.45
2023-04-19T09:38:49.940Z,9.18
2023-04-19T09:39:53.760Z,9.02
2023-04-19T09:41:08.216Z,7.75
2023-04-19T09:42:11.736Z,5.93
2023-04-19T09:43:53.085Z,7.82
2023-04-19T09:46:06.651Z,9.23
2023-04-19T09:47:25.918Z,8.57
2023-04-19T09:48:28.889Z,10.27
2023-04-19T09:51:01.929Z,9.55
2023-04-19T09:52:08.277Z,9.13
2023-04-19T09:53:13.604Z,9.60
2023-04-19T09:54:18.942Z,12.25
2023-04-19T09:55:27.684Z,7.97
2023-04-19T09:56:31.642Z,9.07
2023-04-19T09:57:35.797Z,12.93
2023-04-19T09:58:50.236Z,12.80
2023-04-19T10:00:00.194Z,8.60
2023-04-19T10:01:14.329Z,9.18
2023-04-19T10:02:19.322Z,14.43
2023-04-19T10:03:24.291Z,9.50
2023-04-19T10:04:38.440Z,9.38
2023-04-19T10:05:52.160Z,11.73
2023-04-19T10:08:03.566Z,11.38
2023-04-19T10:09:07.104Z,12.23
2023-04-19T10:10:19.640Z,9.27
2023-04-19T10:11:27.809Z,10.43
2023-04-19T10:12:58.490Z,11.70
2023-04-19T10:14:00.458Z,12.25
2023-04-19T10:15:06.498Z,9.30
2023-04-19T10:16:18.813Z,10.35
2023-04-19T10:17:24.653Z,8.38
2023-04-19T10:18:28.510Z,11.30
2023-04-19T10:19:35.981Z,9.65
2023-04-19T10:20:57.506Z,9.15
2023-04-19T10:22:01.096Z,11.43
2023-04-19T10:23:07.726Z,10.43
2023-04-19T10:24:13.983Z,13.57
2023-04-19T10:25:17.454Z,10.57
2023-04-19T10:26:20.792Z,10.15
2023-04-19T10:27:26.340Z,12.18
2023-04-19T10:28:31.198Z,11.77
2023-04-19T10:29:52.140Z,8.68
2023-04-19T10:30:56.564Z,8.25
2023-04-19T10:31:59.682Z,8.57
2023-04-19T10:33:04.557Z,8.98
2023-04-19T10:34:07.557Z,10.38
2023-04-19T10:35:23.602Z,10.52
2023-04-19T10:36:27.992Z,12.70
2023-04-19T10:37:32.425Z,9.77
2023-04-19T10:38:53.921Z,9.68
2023-04-19T10:39:56.929Z,8.15
2023-04-19T10:41:01.796Z,8.00
2023-04-19T10:42:04.774Z,8.65
2023-04-19T10:43:13.852Z,9.57
2023-04-19T10:44:16.854Z,10.85
2023-04-19T10:45:31.909Z,8.07
2023-04-19T10:46:36.432Z,7.72
2023-04-19T10:47:44.984Z,8.20
2023-04-19T10:48:57.896Z,8.88
2023-04-19T10:50:04.494Z,8.82
2023-04-19T10:51:20.002Z,7.10
2023-04-19T10:52:31.857Z,8.65
2023-04-19T10:53:51.158Z,7.85
2023-04-19T10:54:57.384Z,8.15
2023-04-19T10:56:00.804Z,9.20
2023-04-19T10:57:11.938Z,8.65
2023-04-19T10:58:15.072Z,9.35
2023-04-19T10:59:22.426Z,9.45
2023-04-19T11:00:27.227Z,9.57
2023-04-19T11:01:40.344Z,8.02
2023-04-19T11:02:43.749Z,8.23
2023-04-19T11:03:46.798Z,9.73
2023-04-19T11:04:49.995Z,12.02
2023-04-19T11:06:21.614Z,10.05
2023-04-19T11:07:24.904Z,9.77
2023-04-19T11:08:28.278Z,9.20
2023-04-19T11:09:35.719Z,11.43
2023-04-19T11:10:38.894Z,10.27
2023-04-19T11:11:42.094Z,10.45
2023-04-19T11:12:45.425Z,10.60
2023-04-19T11:13:49.096Z,13.85
2023-04-19T11:14:54.695Z,12.55
2023-04-19T11:15:59.615Z,12.70
2023-04-19T11:17:19.196Z,17.37
2023-04-19T11:18:22.279Z,11.07
2023-04-19T11:19:25.527Z,12.75
2023-04-19T11:20:28.662Z,13.73
2023-04-19T11:21:32.524Z,14.38
2023-04-19T11:22:36.467Z,13.27
2023-04-19T11:23:39.505Z,15.10
2023-04-19T11:24:47.423Z,11.12
2023-04-19T11:25:52.855Z,12.43
2023-04-19T11:26:57.394Z,10.57
2023-04-19T11:28:01.012Z,9.15
2023-04-19T11:29:04.883Z,14.00
2023-04-19T11:30:13.361Z,11.02
2023-04-19T11:31:18.879Z,14.65
2023-04-19T11:32:22.761Z,12.25
2023-04-19T11:33:27.533Z,11.18
2023-04-19T11:34:30.517Z,13.05
2023-04-19T11:35:33.581Z,11.98
2023-04-19T11:36:48.112Z,12.65
2023-04-19T11:37:51.749Z,13.85
2023-04-19T11:38:55.212Z,13.10
2023-04-19T11:40:01.144Z,12.15
2023-04-19T11:41:06.600Z,10.77
2023-04-19T11:42:18.208Z,12.30
2023-04-19T11:43:21.202Z,11.38
2023-04-19T11:44:24.243Z,11.95
2023-04-19T11:45:33.119Z,12.05
2023-04-19T11:46:39.322Z,12.43
2023-04-19T11:47:49.541Z,14.95
2023-04-19T11:48:53.977Z,12.02
2023-04-19T11:49:57.843Z,10.55
2023-04-19T11:51:01.627Z,10.05
2023-04-19T11:52:06.747Z,13.55
2023-04-19T11:53:13.581Z,13.62
2023-04-19T11:54:18.272Z,13.50
2023-04-19T11:55:21.833Z,15.48
2023-04-19T11:56:24.826Z,12.13
2023-04-19T11:57:30.160Z,10.38
2023-04-19T11:58:33.844Z,10.48
2023-04-19T11:59:37.180Z,10.40
2023-04-19T12:00:40.197Z,10.80
2023-04-19T12:01:43.337Z,15.88
2023-04-19T12:02:47.516Z,11.43
2023-04-19T12:03:55.890Z,11.32
2023-04-19T12:05:08.576Z,13.25
2023-04-19T12:06:14.229Z,12.90
2023-04-19T12:07:17.493Z,12.45
2023-04-19T12:08:32.158Z,14.82
2023-04-19T12:09:37.118Z,12.05
2023-04-19T12:10:39.987Z,10.75
2023-04-19T12:11:50.255Z,14.00
2023-04-19T12:12:53.315Z,12.05
2023-04-19T12:14:28.554Z,13.32
2023-04-19T12:15:45.076Z,11.10
2023-04-19T12:17:13.984Z,11.40
2023-04-19T12:18:17.410Z,11.10
2023-04-19T12:19:20.852Z,10.13
2023-04-19T12:20:33.362Z,11.50
2023-04-19T12:21:36.472Z,10.32
2023-04-19T12:22:39.461Z,11.48
2023-04-19T12:23:42.361Z,11.65
2023-04-19T12:24:45.307Z,9.73
2023-04-19T12:25:50.135Z,9.13
2023-04-19T12:27:02.217Z,12.20
2023-04-19T12:28:06.872Z,11.30
2023-04-19T12:29:09.910Z,10.85
2023-04-19T12:30:13.246Z,10.65
2023-04-19T12:31:16.975Z,9.75
2023-04-19T12:32:19.861Z,11.63
2023-04-19T12:33:23.978Z,10.90
2023-04-19T12:34:27.365Z,13.25
2023-04-19T12:35:31.032Z,11.40
2023-04-19T12:36:34.451Z,11.63
2023-04-19T12:37:37.659Z,13.48
2023-04-19T12:38:41.465Z,10.02
2023-04-19T12:39:44.457Z,10.77
2023-04-19T12:40:47.526Z,9.68
2023-04-19T12:41:50.577Z,10.57
2023-04-19T12:42:54.836Z,10.45
2023-04-19T12:43:58.425Z,10.10
2023-04-19T12:45:01.528Z,12.68
2023-04-19T12:46:05.988Z,8.73
2023-04-19T12:47:09.142Z,11.57
2023-04-19T12:48:12.318Z,11.48
2023-04-19T12:49:15.575Z,10.50
2023-04-19T12:50:18.564Z,11.77
2023-04-19T12:51:21.469Z,9.68
2023-04-19T12:52:24.506Z,12.00
2023-04-19T12:53:27.459Z,10.00
2023-04-19T12:54:30.470Z,9.27
2023-04-19T12:55:33.625Z,10.02
2023-04-19T12:56:36.678Z,9.10
2023-04-19T12:57:40.117Z,8.48
2023-04-19T12:58:43.490Z,10.43
2023-04-19T12:59:46.402Z,9.38
2023-04-19T13:00:49.851Z,9.60
2023-04-19T13:01:52.960Z,9.52
2023-04-19T13:02:56.476Z,9.25
2023-04-19T13:04:00.454Z,10.18
2023-04-19T13:05:05.492Z,8.25
2023-04-19T13:06:09.445Z,8.43
2023-04-19T13:07:12.496Z,9.18
2023-04-19T13:08:15.469Z,9.13
2023-04-19T13:09:18.432Z,10.40
2023-04-19T13:10:21.369Z,9.30
2023-04-19T13:11:24.522Z,10.20
2023-04-19T13:12:28.748Z,8.63
2023-04-19T13:13:31.714Z,9.27
2023-04-19T13:14:35.070Z,11.80
2023-04-19T13:15:38.521Z,8.70
2023-04-19T13:16:41.799Z,10.00
2023-04-19T13:17:44.884Z,12.02
2023-04-19T13:18:47.734Z,15.18
2023-04-19T13:19:51.338Z,12.15
2023-04-19T13:20:54.237Z,14.50
2023-04-19T13:21:57.143Z,15.05
2023-04-19T13:22:59.949Z,12.85
2023-04-19T13:24:03.171Z,12.00
2023-04-19T13:25:06.548Z,15.55
2023-04-19T13:26:09.392Z,12.40
2023-04-19T13:27:12.694Z,14.02
2023-04-19T13:28:15.824Z,14.15
2023-04-19T13:29:19.153Z,13.52
2023-04-19T13:30:22.230Z,17.67
2023-04-19T13:31:25.664Z,15.15
2023-04-19T13:32:29.457Z,17.52
2023-04-19T13:33:32.399Z,14.27
2023-04-19T13:34:35.514Z,16.90
2023-04-19T13:35:38.427Z,15.70
2023-04-19T13:36:41.454Z,14.98
2023-04-19T13:37:47.115Z,14.63
2023-04-19T13:38:50.124Z,15.45
2023-04-19T13:39:56.808Z,16.62
2023-04-19T13:41:04.874Z,19.05
2023-04-19T13:42:07.850Z,18.25
2023-04-19T13:43:11.530Z,17.35
2023-04-19T13:44:14.712Z,18.42
2023-04-19T13:45:17.778Z,18.05
2023-04-19T13:46:20.625Z,16.37
2023-04-19T13:47:23.568Z,21.00
2023-04-19T13:48:29.560Z,16.90
2023-04-19T13:49:32.637Z,17.87
2023-04-19T13:50:36.231Z,16.40
2023-04-19T13:51:49.500Z,15.57
2023-04-19T13:52:54.453Z,16.85
2023-04-19T13:53:57.502Z,14.57
2023-04-19T13:55:00.411Z,14.57
2023-04-19T13:56:03.292Z,15.48
2023-04-19T13:57:06.786Z,13.98
2023-04-19T13:58:09.601Z,14.98
2023-04-19T13:59:12.631Z,19.27
2023-04-19T14:00:16.117Z,15.13
2023-04-19T14:01:19.192Z,15.05
2023-04-19T14:02:22.418Z,14.40
2023-04-19T14:03:27.079Z,15.25
2023-04-19T14:04:30.939Z,14.02
2023-04-19T14:05:33.770Z,13.70
2023-04-19T14:06:36.709Z,13.23
2023-04-19T14:07:40.873Z,13.40
2023-04-19T14:08:44.502Z,13.48
2023-04-19T14:09:47.537Z,13.77
2023-04-19T14:10:51.260Z,13.65
2023-04-19T14:11:54.464Z,14.00
2023-04-19T14:12:57.627Z,16.92
2023-04-19T14:14:00.839Z,13.88
2023-04-19T14:15:04.151Z,12.10
2023-04-19T14:16:07.490Z,13.10
2023-04-19T14:17:10.464Z,14.80
2023-04-19T14:18:13.540Z,12.35
2023-04-19T14:19:16.963Z,14.02
2023-04-19T14:20:20.019Z,14.13
2023-04-19T14:21:23.193Z,15.65
2023-04-19T14:22:26.137Z,15.88
2023-04-19T14:23:29.149Z,16.67